Destinations Vienna International Airport

Vienna International Airport (LOWW / VIE)

Flights to Vienna International Airport

Flight number From ETE Dispatch
SPY-2400 EGPH Edinburgh Airport 02:40

Flights from Vienna International Airport

Flight number To ETE Dispatch
SPY-2401 EGPH Edinburgh Airport 02:40
About

Vienna International Airport facts

Vienna International Airport is located in Vienna at an elevation of 182.9 meters or 600 feet.

Currently, Speedy Airlines serves 2 flights to and from Vienna International Airport.

Detailed airport info

Route map

Weather

Current weather

METAR

METAR

Metar data retrieved Sunday, 21 July 2024 at 18:55 UTC

LOWW 211820Z 13002KT CAVOK 28/12 Q1009 NOSIG
Wind Temperature
2 kt 28c